createdAt,value
2019-05-18T00:01:21.350Z,99.90
2019-05-18T00:03:50.274Z,99.90
2019-05-18T00:06:19.394Z,99.90
2019-05-18T00:08:48.158Z,99.90
2019-05-18T00:11:17.193Z,99.90
2019-05-18T00:13:46.309Z,99.90
2019-05-18T00:16:15.068Z,99.90
2019-05-18T00:18:43.850Z,99.90
2019-05-18T00:21:13.041Z,99.90
2019-05-18T00:23:41.889Z,99.90
2019-05-18T00:26:10.661Z,99.90
2019-05-18T00:28:39.457Z,99.90
2019-05-18T00:31:08.525Z,99.90
2019-05-18T00:33:37.570Z,99.90
2019-05-18T00:36:06.398Z,99.90
2019-05-18T00:38:35.174Z,99.90
2019-05-18T00:41:04.105Z,99.90
2019-05-18T00:43:33.037Z,99.90
2019-05-18T00:46:01.937Z,99.90
2019-05-18T00:48:30.733Z,99.90
2019-05-18T00:50:59.512Z,99.90
2019-05-18T00:53:28.426Z,99.90
2019-05-18T00:55:57.193Z,99.90
2019-05-18T00:58:25.994Z,99.90
2019-05-18T01:00:54.834Z,99.90
2019-05-18T01:03:23.741Z,99.90
2019-05-18T01:05:52.598Z,99.90
2019-05-18T01:08:21.357Z,99.90
2019-05-18T01:10:50.217Z,99.90
2019-05-18T01:13:19.002Z,99.90
2019-05-18T01:15:47.805Z,99.90
2019-05-18T01:18:16.961Z,99.90
2019-05-18T01:20:46.785Z,99.90
2019-05-18T01:23:15.637Z,99.90
2019-05-18T01:25:44.578Z,99.90
2019-05-18T01:28:13.793Z,99.90
2019-05-18T01:30:42.713Z,99.90
2019-05-18T01:33:11.475Z,99.90
2019-05-18T01:35:40.318Z,99.90
2019-05-18T01:38:09.163Z,99.90
2019-05-18T01:40:37.958Z,99.90
2019-05-18T01:43:06.754Z,99.90
2019-05-18T01:45:35.541Z,99.90
2019-05-18T01:48:13.431Z,99.90
2019-05-18T01:50:34.954Z,99.90
2019-05-18T01:53:03.819Z,99.90
2019-05-18T01:55:32.601Z,99.90
2019-05-18T01:58:01.367Z,99.90
2019-05-18T02:00:30.137Z,99.90
2019-05-18T02:02:58.946Z,99.90
2019-05-18T02:05:27.904Z,99.90
2019-05-18T02:10:17.261Z,99.90
2019-05-18T02:12:46.029Z,99.90
2019-05-18T02:15:15.049Z,99.90
2019-05-18T02:17:43.817Z,99.90
2019-05-18T02:20:12.769Z,99.90
2019-05-18T02:22:41.534Z,99.90
2019-05-18T02:25:10.549Z,99.90
2019-05-18T02:27:39.325Z,99.90
2019-05-18T02:30:08.746Z,99.90
2019-05-18T02:32:37.903Z,99.90
2019-05-18T02:35:07.206Z,99.90
2019-05-18T02:37:36.161Z,99.90
2019-05-18T02:40:05.826Z,99.90
2019-05-18T02:42:34.770Z,99.90
2019-05-18T02:45:03.681Z,99.90
2019-05-18T02:47:32.809Z,99.90
2019-05-18T02:50:01.555Z,99.90
2019-05-18T02:52:30.327Z,99.90
2019-05-18T02:54:59.091Z,99.90
2019-05-18T02:57:27.870Z,99.90
2019-05-18T02:59:56.701Z,99.90
2019-05-18T03:02:25.478Z,99.90
2019-05-18T03:04:54.377Z,99.90
2019-05-18T03:07:23.239Z,99.90
2019-05-18T03:09:52.142Z,99.90
2019-05-18T03:12:21.342Z,99.90
2019-05-18T03:14:50.505Z,99.90
2019-05-18T03:17:19.359Z,99.90
2019-05-18T03:19:48.354Z,99.90
2019-05-18T03:22:17.403Z,99.90
2019-05-18T03:24:46.279Z,99.90
2019-05-18T03:27:15.126Z,99.90
2019-05-18T03:29:43.910Z,99.90
2019-05-18T03:32:12.687Z,99.90
2019-05-18T03:34:41.666Z,99.90
2019-05-18T03:37:10.586Z,99.90
2019-05-18T03:39:39.588Z,99.90
2019-05-18T03:42:08.635Z,99.90
2019-05-18T03:44:37.490Z,99.90
2019-05-18T03:47:06.331Z,99.90
2019-05-18T03:49:35.200Z,99.90
2019-05-18T03:52:04.265Z,99.90
2019-05-18T03:54:33.182Z,99.90
2019-05-18T03:57:02.274Z,99.90
2019-05-18T03:59:31.142Z,99.90
2019-05-18T04:01:59.954Z,99.90
2019-05-18T04:04:28.884Z,99.90
2019-05-18T04:06:57.867Z,99.90
2019-05-18T04:09:26.799Z,99.90
2019-05-18T04:11:55.570Z,99.90
2019-05-18T04:14:24.446Z,99.90
2019-05-18T04:16:57.450Z,99.90
2019-05-18T04:19:42.989Z,99.90
2019-05-18T04:21:57.108Z,99.90
2019-05-18T04:24:26.093Z,99.90
2019-05-18T04:26:54.999Z,99.90
2019-05-18T04:29:23.905Z,99.90
2019-05-18T04:31:52.723Z,99.90
2019-05-18T04:34:21.853Z,99.90
2019-05-18T04:36:50.629Z,99.90
2019-05-18T04:39:19.474Z,99.90
2019-05-18T04:41:48.242Z,99.90
2019-05-18T04:44:17.022Z,99.90
2019-05-18T04:46:46.430Z,99.90
2019-05-18T04:49:15.437Z,99.90
2019-05-18T04:51:44.399Z,99.90
2019-05-18T04:54:13.335Z,99.90
2019-05-18T04:56:43.169Z,99.90
2019-05-18T04:59:12.141Z,99.90
2019-05-18T05:01:41.006Z,99.90
2019-05-18T05:04:09.880Z,99.90
2019-05-18T05:06:38.774Z,99.90
2019-05-18T05:09:08.442Z,99.90
2019-05-18T05:11:37.215Z,99.90
2019-05-18T05:14:06.341Z,99.90
2019-05-18T05:16:35.606Z,99.90
2019-05-18T05:19:04.759Z,99.90
2019-05-18T05:21:33.605Z,99.90
2019-05-18T05:24:02.457Z,99.90
2019-05-18T05:26:33.531Z,99.90
2019-05-18T05:29:02.456Z,99.90
2019-05-18T05:31:31.284Z,99.90
2019-05-18T05:34:00.474Z,99.90
2019-05-18T05:36:32.417Z,99.60
2019-05-18T05:39:01.241Z,99.20
2019-05-18T05:41:30.021Z,98.80
2019-05-18T05:43:58.803Z,98.60
2019-05-18T05:46:27.586Z,97.90
2019-05-18T05:48:56.423Z,97.40
2019-05-18T05:51:25.306Z,96.70
2019-05-18T05:53:54.137Z,95.80
2019-05-18T05:56:23.005Z,94.80
2019-05-18T05:58:51.914Z,93.70
2019-05-18T06:01:20.840Z,92.50
2019-05-18T06:03:49.718Z,90.70
2019-05-18T06:06:18.502Z,89.60
2019-05-18T06:08:47.553Z,86.10
2019-05-18T06:11:17.368Z,82.20
2019-05-18T06:13:46.132Z,79.80
2019-05-18T06:16:14.974Z,77.10
2019-05-18T06:18:43.777Z,75.20
2019-05-18T06:21:12.842Z,74.00
2019-05-18T06:23:41.613Z,70.50
2019-05-18T06:26:10.672Z,70.40
2019-05-18T06:28:39.445Z,69.00
2019-05-18T06:31:08.237Z,65.40
2019-05-18T06:33:37.080Z,63.30
2019-05-18T06:36:05.875Z,60.70
2019-05-18T06:38:34.659Z,56.80
2019-05-18T06:41:03.574Z,55.40
2019-05-18T06:43:32.500Z,53.10
2019-05-18T06:46:01.455Z,50.50
2019-05-18T06:48:30.253Z,47.80
2019-05-18T06:51:07.210Z,46.30
2019-05-18T06:53:29.582Z,45.00
2019-05-18T06:55:58.789Z,42.50
2019-05-18T06:58:28.490Z,41.70
2019-05-18T07:00:57.254Z,40.20
2019-05-18T07:03:26.269Z,37.40
2019-05-18T07:05:55.100Z,37.10
2019-05-18T07:08:23.937Z,34.40
2019-05-18T07:10:52.778Z,34.70
2019-05-18T07:13:21.586Z,32.80
2019-05-18T07:15:50.394Z,34.60
2019-05-18T07:18:19.286Z,34.00
2019-05-18T07:20:48.154Z,32.90
2019-05-18T07:23:17.037Z,33.10
2019-05-18T07:25:45.808Z,33.00
2019-05-18T07:28:14.585Z,31.40
2019-05-18T07:30:43.531Z,30.00
2019-05-18T07:33:12.377Z,29.80
2019-05-18T07:35:41.138Z,29.00
2019-05-18T07:38:09.997Z,28.00
2019-05-18T07:40:39.011Z,27.10
2019-05-18T07:43:07.786Z,27.30
2019-05-18T07:45:36.748Z,27.90
2019-05-18T07:48:05.852Z,27.30
2019-05-18T07:50:35.042Z,26.90
2019-05-18T07:53:03.919Z,25.10
2019-05-18T07:55:32.999Z,24.40
2019-05-18T07:58:01.813Z,23.50
2019-05-18T08:00:30.710Z,23.60
2019-05-18T08:02:59.558Z,23.10
2019-05-18T08:05:28.409Z,21.80
2019-05-18T08:07:57.271Z,21.50
2019-05-18T08:10:36.579Z,19.10
2019-05-18T08:13:05.861Z,20.40
2019-05-18T08:15:35.259Z,19.00
2019-05-18T08:18:04.230Z,18.90
2019-05-18T08:20:33.086Z,18.60
2019-05-18T08:23:01.958Z,18.20
2019-05-18T08:25:30.769Z,17.90
2019-05-18T08:27:59.938Z,17.20
2019-05-18T08:30:28.761Z,16.90
2019-05-18T08:32:57.581Z,16.40
2019-05-18T08:35:27.255Z,15.90
2019-05-18T08:37:56.336Z,15.40
2019-05-18T08:40:25.234Z,14.80
2019-05-18T08:42:54.121Z,14.30
2019-05-18T08:45:22.978Z,13.90
2019-05-18T08:47:51.734Z,13.40
2019-05-18T08:50:20.633Z,12.80
2019-05-18T08:52:49.376Z,12.20
2019-05-18T08:55:18.722Z,12.20
2019-05-18T08:57:47.453Z,12.10
2019-05-18T09:00:16.661Z,11.80
2019-05-18T09:02:45.489Z,12.20
2019-05-18T09:05:14.549Z,12.30
2019-05-18T09:07:43.298Z,12.20
2019-05-18T09:10:12.427Z,12.00
2019-05-18T09:12:41.247Z,11.80
2019-05-18T09:15:10.921Z,12.40
2019-05-18T09:17:39.692Z,11.70
2019-05-18T09:20:08.810Z,11.10
2019-05-18T09:22:37.714Z,10.90
2019-05-18T09:25:07.109Z,10.70
2019-05-18T09:27:36.163Z,10.20
2019-05-18T09:30:05.632Z,9.90
2019-05-18T09:32:34.672Z,9.30
2019-05-18T09:35:03.938Z,8.50
2019-05-18T09:37:33.070Z,8.70
2019-05-18T09:40:01.845Z,8.60
2019-05-18T09:42:30.705Z,7.90
2019-05-18T09:44:59.486Z,7.80
2019-05-18T09:47:28.502Z,8.40
2019-05-18T09:49:57.466Z,9.80
2019-05-18T09:52:43.510Z,11.00
2019-05-18T09:54:56.879Z,12.40
2019-05-18T09:57:25.674Z,14.50
2019-05-18T09:59:54.471Z,15.70
2019-05-18T10:02:23.261Z,16.90
2019-05-18T10:04:52.109Z,18.00
2019-05-18T10:07:20.959Z,19.10
2019-05-18T10:09:49.927Z,20.50
2019-05-18T10:12:18.839Z,21.50
2019-05-18T10:14:47.599Z,23.00
2019-05-18T10:17:16.492Z,23.10
2019-05-18T10:19:45.430Z,23.90
2019-05-18T10:22:14.342Z,25.70
2019-05-18T10:24:43.358Z,26.00
2019-05-18T10:27:12.278Z,25.30
2019-05-18T10:29:41.185Z,24.70
2019-05-18T10:32:09.982Z,24.10
2019-05-18T10:34:38.907Z,20.10
2019-05-18T10:37:07.755Z,17.40
2019-05-18T10:39:38.693Z,15.10
2019-05-18T10:42:07.186Z,13.50
2019-05-18T10:44:36.203Z,12.30
2019-05-18T10:47:04.998Z,11.60
2019-05-18T10:49:33.788Z,10.80
2019-05-18T10:52:02.633Z,10.70
2019-05-18T10:54:31.640Z,10.30
2019-05-18T10:57:01.010Z,9.70
2019-05-18T10:59:29.849Z,11.60
2019-05-18T11:01:58.783Z,13.30
2019-05-18T11:04:27.546Z,12.90
2019-05-18T11:06:56.495Z,11.20
2019-05-18T11:09:25.382Z,11.00
2019-05-18T11:11:54.253Z,9.80
2019-05-18T11:14:23.022Z,9.30
2019-05-18T11:16:51.838Z,9.10
2019-05-18T11:19:20.603Z,8.90
2019-05-18T11:21:49.624Z,8.70
2019-05-18T11:24:18.535Z,8.50
2019-05-18T11:26:47.305Z,8.70
2019-05-18T11:29:16.068Z,8.70
2019-05-18T11:31:44.923Z,8.70
2019-05-18T11:34:13.770Z,8.60
2019-05-18T11:36:42.611Z,8.10
2019-05-18T11:39:11.616Z,8.00
2019-05-18T11:41:40.420Z,9.30
2019-05-18T11:44:10.916Z,11.50
2019-05-18T11:46:40.075Z,14.20
2019-05-18T11:49:08.841Z,17.10
2019-05-18T11:51:37.683Z,19.00
2019-05-18T11:54:06.485Z,19.40
2019-05-18T11:56:35.237Z,18.00
2019-05-18T11:59:04.206Z,16.80
2019-05-18T12:01:33.059Z,17.50
2019-05-18T12:04:02.176Z,18.80
2019-05-18T12:06:31.235Z,19.80
2019-05-18T12:09:00.009Z,20.90
2019-05-18T12:11:29.018Z,22.40
2019-05-18T12:13:57.794Z,23.20
2019-05-18T12:16:26.837Z,24.70
2019-05-18T12:18:57.548Z,25.20
2019-05-18T12:21:26.072Z,26.40
2019-05-18T12:23:54.857Z,26.30
2019-05-18T12:26:23.698Z,26.60
2019-05-18T12:28:52.654Z,27.10
2019-05-18T12:31:21.573Z,27.80
2019-05-18T12:33:50.341Z,28.50
2019-05-18T12:36:19.175Z,28.30
2019-05-18T12:38:47.950Z,29.00
2019-05-18T12:41:20.062Z,29.50
2019-05-18T12:43:48.943Z,29.80
2019-05-18T12:46:17.915Z,30.10
2019-05-18T12:48:46.689Z,29.90
2019-05-18T12:51:15.569Z,30.50
2019-05-18T12:53:44.382Z,31.00
2019-05-18T12:56:13.230Z,31.00
2019-05-18T12:58:42.178Z,30.50
2019-05-18T13:01:11.094Z,29.30
2019-05-18T13:03:39.975Z,29.70
2019-05-18T13:06:08.857Z,29.70
2019-05-18T13:08:37.886Z,28.80
2019-05-18T13:11:06.851Z,28.40
2019-05-18T13:13:35.807Z,28.10
2019-05-18T13:16:05.116Z,29.30
2019-05-18T13:18:34.094Z,29.90
2019-05-18T13:21:02.934Z,30.50
2019-05-18T13:23:31.766Z,31.80
2019-05-18T13:26:00.525Z,32.90
2019-05-18T13:28:29.488Z,32.50
2019-05-18T13:30:58.300Z,33.60
2019-05-18T13:33:27.168Z,33.80
2019-05-18T13:35:56.078Z,33.10
2019-05-18T13:38:25.014Z,33.20
2019-05-18T13:40:54.149Z,33.90
2019-05-18T13:43:23.082Z,33.40
2019-05-18T13:45:51.871Z,33.90
2019-05-18T13:48:20.634Z,34.40
2019-05-18T13:50:49.501Z,34.20
2019-05-18T13:53:18.378Z,35.70
2019-05-18T13:55:47.422Z,35.30
2019-05-18T13:58:16.402Z,35.70
2019-05-18T14:00:45.401Z,34.80
2019-05-18T14:03:14.544Z,36.00
2019-05-18T14:05:43.641Z,35.60
2019-05-18T14:08:15.784Z,35.50
2019-05-18T14:10:42.979Z,35.20
2019-05-18T14:13:11.738Z,35.60
2019-05-18T14:15:40.829Z,36.40
2019-05-18T14:18:09.615Z,35.70
2019-05-18T14:20:38.764Z,36.20
2019-05-18T14:23:07.714Z,36.70
2019-05-18T14:25:36.586Z,37.10
2019-05-18T14:28:05.682Z,37.60
2019-05-18T14:30:34.572Z,37.50
2019-05-18T14:33:03.354Z,37.10
2019-05-18T14:35:33.537Z,37.00
2019-05-18T14:38:02.513Z,36.80
2019-05-18T14:40:31.313Z,36.70
2019-05-18T14:43:00.142Z,36.80
2019-05-18T14:45:29.037Z,37.80
2019-05-18T14:47:57.878Z,37.00
2019-05-18T14:50:26.960Z,36.90
2019-05-18T14:52:55.862Z,37.10
2019-05-18T14:55:33.270Z,37.20
2019-05-18T14:57:55.290Z,36.90
2019-05-18T15:00:24.322Z,36.50
2019-05-18T15:02:53.127Z,36.40
2019-05-18T15:05:22.054Z,36.50
2019-05-18T15:07:50.833Z,35.70
2019-05-18T15:10:20.566Z,35.30
2019-05-18T15:12:49.418Z,34.70
2019-05-18T15:15:18.257Z,34.90
2019-05-18T15:17:47.035Z,34.80
2019-05-18T15:20:16.457Z,34.10
2019-05-18T15:22:45.430Z,34.20
2019-05-18T15:25:14.399Z,33.70
2019-05-18T15:27:43.157Z,33.80
2019-05-18T15:30:12.243Z,32.90
2019-05-18T15:32:41.165Z,33.00
2019-05-18T15:35:10.926Z,32.60
2019-05-18T15:37:42.930Z,32.80
2019-05-18T15:40:10.498Z,33.00
2019-05-18T15:42:39.368Z,33.90
2019-05-18T15:45:08.794Z,33.30
2019-05-18T15:47:37.710Z,34.20
2019-05-18T15:50:06.963Z,34.50
2019-05-18T15:52:35.821Z,34.80
2019-05-18T15:55:05.007Z,34.90
2019-05-18T15:57:33.900Z,34.50
2019-05-18T16:00:06.404Z,34.80
2019-05-18T16:02:33.341Z,34.80
2019-05-18T16:05:02.404Z,35.60
2019-05-18T16:07:31.334Z,35.60
2019-05-18T16:10:00.108Z,36.20
2019-05-18T16:12:28.969Z,36.20
2019-05-18T16:14:57.741Z,36.10
2019-05-18T16:17:38.791Z,36.30
2019-05-18T16:19:57.349Z,36.60
2019-05-18T16:22:28.730Z,36.30
2019-05-18T16:24:57.577Z,36.80
2019-05-18T16:27:26.477Z,36.60
2019-05-18T16:29:55.257Z,37.10
2019-05-18T16:32:24.398Z,39.30
2019-05-18T16:34:53.790Z,40.00
2019-05-18T16:37:22.809Z,42.00
2019-05-18T16:39:51.685Z,42.20
2019-05-18T16:42:20.498Z,40.70
2019-05-18T16:44:49.303Z,40.90
2019-05-18T16:47:18.155Z,41.30
2019-05-18T16:49:47.009Z,41.80
2019-05-18T16:52:15.843Z,41.20
2019-05-18T16:54:44.624Z,42.00
2019-05-18T16:57:13.489Z,41.40
2019-05-18T16:59:42.323Z,41.40
2019-05-18T17:02:11.453Z,42.70
2019-05-18T17:04:40.241Z,42.50
2019-05-18T17:07:09.241Z,43.00
2019-05-18T17:09:38.094Z,43.60
2019-05-18T17:12:06.956Z,44.10
2019-05-18T17:14:35.781Z,44.60
2019-05-18T17:17:04.706Z,45.60
2019-05-18T17:19:33.491Z,45.30
2019-05-18T17:22:02.538Z,46.70
2019-05-18T17:24:31.698Z,46.40
2019-05-18T17:27:00.706Z,47.60
2019-05-18T17:29:29.653Z,47.50
2019-05-18T17:31:58.926Z,47.80
2019-05-18T17:34:28.095Z,48.00
2019-05-18T17:36:56.858Z,49.30
2019-05-18T17:39:25.697Z,50.00
2019-05-18T17:41:54.470Z,53.10
2019-05-18T17:44:23.257Z,55.80
2019-05-18T17:46:52.032Z,69.20
2019-05-18T17:49:26.694Z,76.20
2019-05-18T17:51:51.511Z,80.00
2019-05-18T17:54:20.954Z,76.40
2019-05-18T17:56:49.716Z,75.10
2019-05-18T17:59:18.497Z,74.70
2019-05-18T18:01:47.439Z,72.50
2019-05-18T18:04:16.762Z,71.70
2019-05-18T18:06:46.209Z,72.60
2019-05-18T18:09:15.161Z,72.30
2019-05-18T18:11:44.009Z,72.00
2019-05-18T18:14:13.030Z,72.10
2019-05-18T18:16:41.980Z,72.30
2019-05-18T18:19:10.857Z,74.10
2019-05-18T18:21:42.042Z,74.30
2019-05-18T18:24:10.878Z,73.60
2019-05-18T18:26:39.682Z,72.90
2019-05-18T18:29:08.519Z,74.70
2019-05-18T18:31:37.396Z,74.70
2019-05-18T18:34:06.463Z,75.70
2019-05-18T18:36:35.329Z,76.10
2019-05-18T18:39:09.045Z,75.50
2019-05-18T18:41:37.969Z,75.00
2019-05-18T18:44:06.842Z,76.60
2019-05-18T18:46:35.694Z,77.60
2019-05-18T18:49:04.833Z,78.50
2019-05-18T18:51:33.784Z,76.70
2019-05-18T18:54:03.024Z,78.10
2019-05-18T18:56:32.388Z,78.80
2019-05-18T18:59:01.277Z,78.30
2019-05-18T19:01:30.958Z,79.50
2019-05-18T19:03:59.717Z,79.80
2019-05-18T19:06:28.951Z,81.10
2019-05-18T19:08:57.838Z,81.40
2019-05-18T19:11:26.770Z,82.10
2019-05-18T19:13:55.613Z,81.90
2019-05-18T19:16:24.497Z,81.40
2019-05-18T19:18:53.270Z,82.00
2019-05-18T19:21:22.385Z,83.70
2019-05-18T19:23:51.249Z,83.30
2019-05-18T19:26:20.538Z,83.80
2019-05-18T19:28:49.401Z,84.20
2019-05-18T19:31:18.260Z,84.40
2019-05-18T19:33:47.065Z,84.70
2019-05-18T19:36:15.846Z,85.20
2019-05-18T19:38:44.687Z,85.60
2019-05-18T19:41:14.785Z,86.10
2019-05-18T19:43:43.731Z,86.60
2019-05-18T19:46:12.731Z,87.00
2019-05-18T19:48:41.684Z,88.10
2019-05-18T19:51:10.898Z,87.70
2019-05-18T19:53:39.944Z,88.00
2019-05-18T19:56:08.817Z,89.00
2019-05-18T19:58:37.819Z,89.20
2019-05-18T20:01:06.999Z,90.30
2019-05-18T20:03:36.053Z,90.20
2019-05-18T20:06:04.950Z,90.40
2019-05-18T20:08:34.757Z,90.60
2019-05-18T20:11:03.694Z,90.90
2019-05-18T20:13:32.474Z,90.70
2019-05-18T20:16:03.702Z,91.10
2019-05-18T20:18:32.778Z,91.10
2019-05-18T20:21:01.566Z,91.40
2019-05-18T20:23:30.334Z,91.10
2019-05-18T20:25:59.177Z,91.10
2019-05-18T20:28:27.976Z,91.00
2019-05-18T20:30:57.009Z,90.90
2019-05-18T20:33:27.850Z,91.10
2019-05-18T20:35:57.003Z,91.40
2019-05-18T20:38:26.234Z,91.70
2019-05-18T20:40:55.002Z,91.70
2019-05-18T20:43:23.787Z,91.70
2019-05-18T20:45:52.592Z,91.70
2019-05-18T20:48:21.536Z,92.00
2019-05-18T20:50:50.304Z,92.10
2019-05-18T20:53:19.360Z,92.30
2019-05-18T20:55:48.105Z,92.40
2019-05-18T20:58:17.183Z,92.40
2019-05-18T21:00:45.963Z,92.50
2019-05-18T21:03:14.989Z,92.70
2019-05-18T21:05:43.834Z,92.70
2019-05-18T21:08:12.725Z,92.80
2019-05-18T21:10:41.468Z,92.70
2019-05-18T21:13:10.425Z,92.90
2019-05-18T21:15:39.518Z,92.90
2019-05-18T21:18:08.330Z,93.30
2019-05-18T21:20:38.198Z,93.60
2019-05-18T21:23:07.064Z,93.70
2019-05-18T21:25:35.903Z,93.90
2019-05-18T21:28:04.719Z,94.30
2019-05-18T21:30:33.488Z,94.40
2019-05-18T21:33:02.281Z,94.30
2019-05-18T21:35:31.127Z,94.20
2019-05-18T21:37:59.893Z,94.20
2019-05-18T21:40:28.686Z,94.10
2019-05-18T21:42:57.457Z,94.30
2019-05-18T21:45:26.246Z,94.20
2019-05-18T21:47:55.038Z,93.90
2019-05-18T21:50:23.822Z,93.90
2019-05-18T21:52:52.755Z,94.10
2019-05-18T21:55:21.609Z,94.00
2019-05-18T21:57:50.370Z,93.80
2019-05-18T22:00:19.597Z,94.00
2019-05-18T22:02:48.514Z,94.00
2019-05-18T22:05:17.704Z,94.40
2019-05-18T22:07:46.542Z,94.50
2019-05-18T22:10:25.531Z,94.70
2019-05-18T22:12:46.053Z,94.90
2019-05-18T22:15:15.028Z,94.70
2019-05-18T22:18:01.578Z,94.80
2019-05-18T22:20:30.527Z,94.80
2019-05-18T22:22:59.398Z,95.00
2019-05-18T22:25:28.189Z,95.00
2019-05-18T22:27:57.370Z,95.10
2019-05-18T22:30:26.317Z,95.40
2019-05-18T22:32:55.163Z,95.10
2019-05-18T22:35:24.113Z,94.90
2019-05-18T22:37:53.083Z,95.00
2019-05-18T22:40:22.187Z,95.30
2019-05-18T22:42:50.957Z,95.40
2019-05-18T22:45:19.833Z,95.30
2019-05-18T22:47:48.625Z,95.50
2019-05-18T22:50:17.732Z,95.60
2019-05-18T22:52:46.483Z,95.70
2019-05-18T22:55:15.430Z,95.90
2019-05-18T22:57:44.273Z,95.90
2019-05-18T23:00:13.317Z,96.10
2019-05-18T23:02:42.402Z,96.10
2019-05-18T23:05:11.341Z,96.20
2019-05-18T23:07:40.442Z,96.20
2019-05-18T23:10:09.433Z,96.40
2019-05-18T23:12:38.287Z,96.20
2019-05-18T23:15:07.191Z,96.80
2019-05-18T23:17:35.977Z,96.40
2019-05-18T23:20:05.034Z,96.40
2019-05-18T23:22:33.799Z,96.60
2019-05-18T23:25:02.678Z,96.70
2019-05-18T23:27:31.769Z,96.80
2019-05-18T23:30:00.681Z,96.50
2019-05-18T23:32:29.502Z,96.70
2019-05-18T23:34:58.258Z,96.60
2019-05-18T23:37:27.058Z,96.70
2019-05-18T23:39:55.823Z,96.70
2019-05-18T23:42:24.606Z,97.40
2019-05-18T23:44:53.457Z,97.80
2019-05-18T23:47:22.229Z,97.50
2019-05-18T23:49:51.057Z,97.70
2019-05-18T23:52:19.898Z,97.70
2019-05-18T23:54:48.654Z,97.80
2019-05-18T23:57:17.437Z,98.00
2019-05-18T23:59:46.223Z,98.60
